Impacts METAR Board
IDs:

KHOU - Houston/Hobby Arpt, TX, US

Updated at: 0600 UTC 19 Aug 2019
Potential Impact None Slight Moderate High
Time 18/18Z 18/19Z 18/20Z 18/21Z 18/22Z 18/23Z 19/00Z 19/01Z 19/02Z 19/03Z 19/04Z 19/05Z 19/06Z
Temp90 91 93 89 91 92 91 88 86 84 83 83 83
Dewpt76 76 77 77 77 73 74 74 76 76 76 77 77
Altim29.92 29.93 29.91 29.89 29.88 29.88 29.88 29.89 29.90 29.92 29.93 29.93 29.93
VIS10 10 10 10 10 10 10 10 10 10 10 10 10
CIG42 45 110 50 80 250 -- -- -- -- -- -- --
CoverBKNBKNBKNBKNBKNBKNSCTSCTFEWFEWFEWFEWFEW
FltCatVFRVFRVFRVFRVFRVFRVFRVFRVFRVFRVFRVFRVFR
WXTSTS---RA------------------
WDir250200220150170190170170160170160170160
WSpd11 11 10 4 10 14 10 11 10 9 6 7 6
WGst17 -- -- -- -- -- -- -- -- -- -- -- --
Raw hourly METARs
KHOU 181753Z 25011G17KT 10SM TS BKN042CB BKN060 BKN250 32/24 A2992 RMK AO2 LTG DSNT NE RAE1658 TSB47 SLP137 OCNL LTGICCG VC NE TS VC NE MOV NE P0000 60000 T03220244 10339 20272 50000
KHOU 181853Z 20011KT 10SM TS BKN045CB BKN120 BKN250 33/24 A2993 RMK AO2 WSHFT 1802 LTG DSNT NE AND E TSE19B38 SLP137 OCNL LTGICCG E TS E MOV NE T03280244
KHOU 181953Z 22010KT 10SM SCT050 BKN110 BKN250 34/25 A2991 RMK AO2 TSE42 SLP131 OCNL LTGICCG DSNT NE CB DSNT NE T03390250
KHOU 182053Z 15004KT 10SM -RA SCT035 BKN050 BKN080 BKN250 32/25 A2989 RMK AO2 SLP124 P0003 60003 T03170250 58013
KHOU 182153Z 17010KT 10SM FEW030 SCT050 BKN080 BKN250 33/25 A2988 RMK AO2 RAE29 SLP120 P0003 T03280250
KHOU 182253Z 19014KT 10SM FEW030 SCT050 BKN250 33/23 A2988 RMK AO2 SLP121 T03330228
KHOU 182353Z 17010KT 10SM FEW030 FEW045 SCT250 33/23 A2988 RMK AO2 SLP123 60006 T03280233 10339 20306 $
KHOU 190053Z 17011KT 10SM FEW030 FEW070 SCT250 31/23 A2989 RMK AO2 SLP126 T03110233 $
KHOU 190153Z 16010KT 10SM FEW250 30/24 A2990 RMK AO2 SLP130 T03000244 $
KHOU 190253Z 17009KT 10SM FEW250 29/24 A2992 RMK AO2 SLP134 T02890244 53010 $
KHOU 190353Z 16006KT 10SM FEW250 28/24 A2993 RMK AO2 SLP140 T02830244 $
KHOU 190453Z 17007KT 10SM FEW020 FEW120 28/25 A2993 RMK AO2 SLP140 T02830250 $
KHOU 190553Z 16006KT 10SM FEW020 28/25 A2993 RMK AO2 SLP139 T02830250 10328 20278 403390272 50005 $



Page loaded:  06:28 UTC  |   11:28 PM Pacific  |   12:28 AM Mountain  |   01:28 AM Central  |   02:28 AM Eastern

 

ADVISORIES

FORECASTS

FORECASTS

OBSERVATIONS

USER TOOLS

ABOUT US